sensor_id;sensor_type;location;lat;lon;timestamp;temperature;humidity
29571;DHT22;16814;52.118;11.436;2022-10-04T00:02:59;11.40;99.90
29571;DHT22;16814;52.118;11.436;2022-10-04T00:05:31;11.50;99.90
29571;DHT22;16814;52.118;11.436;2022-10-04T00:08:19;11.50;99.90
29571;DHT22;16814;52.118;11.436;2022-10-04T00:10:47;11.50;99.90
29571;DHT22;16814;52.118;11.436;2022-10-04T00:13:24;11.50;99.90
29571;DHT22;16814;52.118;11.436;2022-10-04T00:15:51;11.50;99.90
29571;DHT22;16814;52.118;11.436;2022-10-04T00:18:39;11.40;99.90
29571;DHT22;16814;52.118;11.436;2022-10-04T00:21:07;11.40;99.90
29571;DHT22;16814;52.118;11.436;2022-10-04T00:26:06;11.40;99.90
29571;DHT22;16814;52.118;11.436;2022-10-04T00:31:22;11.40;99.90
29571;DHT22;16814;52.118;11.436;2022-10-04T00:33:51;11.50;99.90
29571;DHT22;16814;52.118;11.436;2022-10-04T00:36:38;11.50;99.90
29571;DHT22;16814;52.118;11.436;2022-10-04T00:41:56;11.50;99.90
29571;DHT22;16814;52.118;11.436;2022-10-04T00:44:59;11.40;99.90
29571;DHT22;16814;52.118;11.436;2022-10-04T00:50:44;11.50;99.90
29571;DHT22;16814;52.118;11.436;2022-10-04T00:56:28;11.40;99.90
29571;DHT22;16814;52.118;11.436;2022-10-04T00:59:30;11.40;99.90
29571;DHT22;16814;52.118;11.436;2022-10-04T01:02:10;11.40;99.90
29571;DHT22;16814;52.118;11.436;2022-10-04T01:05:16;11.40;99.90
29571;DHT22;16814;52.118;11.436;2022-10-04T01:07:48;11.40;99.90
29571;DHT22;16814;52.118;11.436;2022-10-04T01:10:27;11.40;99.90
29571;DHT22;16814;52.118;11.436;2022-10-04T01:13:19;11.20;99.90
29571;DHT22;16814;52.118;11.436;2022-10-04T01:18:39;11.30;99.90
29571;DHT22;16814;52.118;11.436;2022-10-04T01:21:25;11.30;99.90
29571;DHT22;16814;52.118;11.436;2022-10-04T01:26:42;11.40;99.90
29571;DHT22;16814;52.118;11.436;2022-10-04T01:29:14;11.20;99.90
29571;DHT22;16814;52.118;11.436;2022-10-04T01:31:45;11.10;99.90
29571;DHT22;16814;52.118;11.436;2022-10-04T01:34:13;11.10;99.90
29571;DHT22;16814;52.118;11.436;2022-10-04T01:36:39;11.10;99.90
29571;DHT22;16814;52.118;11.436;2022-10-04T01:39:06;11.20;99.90
29571;DHT22;16814;52.118;11.436;2022-10-04T01:41:58;11.20;99.90
29571;DHT22;16814;52.118;11.436;2022-10-04T01:44:55;11.30;99.90
29571;DHT22;16814;52.118;11.436;2022-10-04T01:47:29;11.30;99.90
29571;DHT22;16814;52.118;11.436;2022-10-04T01:49:59;11.30;99.90
29571;DHT22;16814;52.118;11.436;2022-10-04T01:52:57;11.30;99.90
29571;DHT22;16814;52.118;11.436;2022-10-04T01:55:33;11.30;99.90
29571;DHT22;16814;52.118;11.436;2022-10-04T01:58:16;11.20;99.90
29571;DHT22;16814;52.118;11.436;2022-10-04T02:00:57;11.30;99.90
29571;DHT22;16814;52.118;11.436;2022-10-04T02:03:40;11.20;99.90
29571;DHT22;16814;52.118;11.436;2022-10-04T02:06:08;11.20;99.90
29571;DHT22;16814;52.118;11.436;2022-10-04T02:08:40;11.20;99.90
29571;DHT22;16814;52.118;11.436;2022-10-04T02:11:16;11.20;99.90
29571;DHT22;16814;52.118;11.436;2022-10-04T02:13:47;11.20;99.90
29571;DHT22;16814;52.118;11.436;2022-10-04T02:16:16;11.20;99.90
29571;DHT22;16814;52.118;11.436;2022-10-04T02:18:44;11.10;99.90
29571;DHT22;16814;52.118;11.436;2022-10-04T02:21:11;11.10;99.90
29571;DHT22;16814;52.118;11.436;2022-10-04T02:23:40;11.10;99.90
29571;DHT22;16814;52.118;11.436;2022-10-04T02:26:10;11.10;99.90
29571;DHT22;16814;52.118;11.436;2022-10-04T02:28:37;11.00;99.90
29571;DHT22;16814;52.118;11.436;2022-10-04T02:31:05;11.10;99.90
29571;DHT22;16814;52.118;11.436;2022-10-04T02:33:58;11.10;99.90
29571;DHT22;16814;52.118;11.436;2022-10-04T02:36:27;11.10;99.90
29571;DHT22;16814;52.118;11.436;2022-10-04T02:39:20;11.10;99.90
29571;DHT22;16814;52.118;11.436;2022-10-04T02:41:52;11.10;99.90
29571;DHT22;16814;52.118;11.436;2022-10-04T02:44:28;11.00;99.90
29571;DHT22;16814;52.118;11.436;2022-10-04T02:47:19;11.00;99.90
29571;DHT22;16814;52.118;11.436;2022-10-04T02:50:00;11.00;99.90
29571;DHT22;16814;52.118;11.436;2022-10-04T02:52:43;11.00;99.90
29571;DHT22;16814;52.118;11.436;2022-10-04T02:55:20;10.90;99.90
29571;DHT22;16814;52.118;11.436;2022-10-04T02:57:48;10.90;99.90
29571;DHT22;16814;52.118;11.436;2022-10-04T03:00:22;10.90;99.90
29571;DHT22;16814;52.118;11.436;2022-10-04T03:03:18;10.90;99.90
29571;DHT22;16814;52.118;11.436;2022-10-04T03:08:21;10.80;99.90
29571;DHT22;16814;52.118;11.436;2022-10-04T03:10:47;10.80;99.90
29571;DHT22;16814;52.118;11.436;2022-10-04T03:13:17;10.80;99.90
29571;DHT22;16814;52.118;11.436;2022-10-04T03:15:50;10.70;99.90
29571;DHT22;16814;52.118;11.436;2022-10-04T03:18:17;10.60;99.90
29571;DHT22;16814;52.118;11.436;2022-10-04T03:20:44;10.60;99.90
29571;DHT22;16814;52.118;11.436;2022-10-04T03:23:14;10.60;99.90
29571;DHT22;16814;52.118;11.436;2022-10-04T03:28:12;10.70;99.90
29571;DHT22;16814;52.118;11.436;2022-10-04T03:30:42;10.60;99.90
29571;DHT22;16814;52.118;11.436;2022-10-04T03:33:23;10.60;99.90
29571;DHT22;16814;52.118;11.436;2022-10-04T03:35:53;10.60;99.90
29571;DHT22;16814;52.118;11.436;2022-10-04T03:38:20;10.50;99.90
29571;DHT22;16814;52.118;11.436;2022-10-04T03:40:57;10.60;99.90
29571;DHT22;16814;52.118;11.436;2022-10-04T03:43:30;10.50;99.90
29571;DHT22;16814;52.118;11.436;2022-10-04T03:46:04;10.60;99.90
29571;DHT22;16814;52.118;11.436;2022-10-04T03:48:34;10.60;99.90
29571;DHT22;16814;52.118;11.436;2022-10-04T03:51:05;10.60;99.90
29571;DHT22;16814;52.118;11.436;2022-10-04T03:53:43;10.60;99.90
29571;DHT22;16814;52.118;11.436;2022-10-04T03:56:26;10.60;99.90
29571;DHT22;16814;52.118;11.436;2022-10-04T03:58:55;10.70;99.90
29571;DHT22;16814;52.118;11.436;2022-10-04T04:01:44;10.70;99.90
29571;DHT22;16814;52.118;11.436;2022-10-04T04:04:34;10.70;99.90
29571;DHT22;16814;52.118;11.436;2022-10-04T04:07:23;10.70;99.90
29571;DHT22;16814;52.118;11.436;2022-10-04T04:10:02;10.70;99.90
29571;DHT22;16814;52.118;11.436;2022-10-04T04:13:20;10.70;99.90
29571;DHT22;16814;52.118;11.436;2022-10-04T04:15:49;10.80;99.90
29571;DHT22;16814;52.118;11.436;2022-10-04T04:18:26;10.80;99.90
29571;DHT22;16814;52.118;11.436;2022-10-04T04:20:54;10.80;99.90
29571;DHT22;16814;52.118;11.436;2022-10-04T04:23:38;10.80;99.90
29571;DHT22;16814;52.118;11.436;2022-10-04T04:29:05;10.80;99.90
29571;DHT22;16814;52.118;11.436;2022-10-04T04:31:46;10.80;99.90
29571;DHT22;16814;52.118;11.436;2022-10-04T04:34:20;10.80;99.90
29571;DHT22;16814;52.118;11.436;2022-10-04T04:36:47;10.80;99.90
29571;DHT22;16814;52.118;11.436;2022-10-04T04:42:18;10.90;99.90
29571;DHT22;16814;52.118;11.436;2022-10-04T04:44:53;10.90;99.90
29571;DHT22;16814;52.118;11.436;2022-10-04T04:47:46;10.90;99.90
29571;DHT22;16814;52.118;11.436;2022-10-04T04:50:25;10.90;99.90
29571;DHT22;16814;52.118;11.436;2022-10-04T04:53:02;10.90;99.90
29571;DHT22;16814;52.118;11.436;2022-10-04T04:55:41;10.90;99.90
29571;DHT22;16814;52.118;11.436;2022-10-04T04:58:09;10.90;99.90
29571;DHT22;16814;52.118;11.436;2022-10-04T05:00:38;10.90;99.90
29571;DHT22;16814;52.118;11.436;2022-10-04T05:03:16;10.90;99.90
29571;DHT22;16814;52.118;11.436;2022-10-04T05:05:45;10.90;99.90
29571;DHT22;16814;52.118;11.436;2022-10-04T05:08:24;11.00;99.90
29571;DHT22;16814;52.118;11.436;2022-10-04T05:11:11;11.00;99.90
29571;DHT22;16814;52.118;11.436;2022-10-04T05:17:05;10.90;99.90
29571;DHT22;16814;52.118;11.436;2022-10-04T05:19:33;11.00;99.90
29571;DHT22;16814;52.118;11.436;2022-10-04T05:22:06;10.90;99.90
29571;DHT22;16814;52.118;11.436;2022-10-04T05:24:44;10.90;99.90
29571;DHT22;16814;52.118;11.436;2022-10-04T05:33:36;11.00;99.90
29571;DHT22;16814;52.118;11.436;2022-10-04T05:42:13;11.10;99.90
29571;DHT22;16814;52.118;11.436;2022-10-04T05:44:53;11.20;99.90
29571;DHT22;16814;52.118;11.436;2022-10-04T05:47:28;11.10;99.90
29571;DHT22;16814;52.118;11.436;2022-10-04T05:49:57;11.20;99.90
29571;DHT22;16814;52.118;11.436;2022-10-04T05:52:33;11.20;99.90
29571;DHT22;16814;52.118;11.436;2022-10-04T05:55:26;11.20;99.90
29571;DHT22;16814;52.118;11.436;2022-10-04T06:01:03;11.30;99.90
29571;DHT22;16814;52.118;11.436;2022-10-04T06:13:03;11.30;99.90
29571;DHT22;16814;52.118;11.436;2022-10-04T06:18:59;11.40;99.90
29571;DHT22;16814;52.118;11.436;2022-10-04T06:24:36;11.60;99.90
29571;DHT22;16814;52.118;11.436;2022-10-04T06:30:17;11.80;99.90
29571;DHT22;16814;52.118;11.436;2022-10-04T06:44:29;12.10;99.90
29571;DHT22;16814;52.118;11.436;2022-10-04T06:47:25;12.00;99.90
29571;DHT22;16814;52.118;11.436;2022-10-04T07:01:44;12.20;99.90
29571;DHT22;16814;52.118;11.436;2022-10-04T07:04:30;12.10;99.90
29571;DHT22;16814;52.118;11.436;2022-10-04T07:10:21;12.20;99.90
29571;DHT22;16814;52.118;11.436;2022-10-04T07:15:57;12.30;99.90
29571;DHT22;16814;52.118;11.436;2022-10-04T07:18:45;12.30;99.90
29571;DHT22;16814;52.118;11.436;2022-10-04T07:21:16;12.40;99.90
29571;DHT22;16814;52.118;11.436;2022-10-04T07:23:54;12.40;99.90
29571;DHT22;16814;52.118;11.436;2022-10-04T07:26:45;12.50;99.90
29571;DHT22;16814;52.118;11.436;2022-10-04T07:29:34;12.50;99.90
29571;DHT22;16814;52.118;11.436;2022-10-04T07:32:16;12.60;99.90
29571;DHT22;16814;52.118;11.436;2022-10-04T07:40:32;13.00;99.90
29571;DHT22;16814;52.118;11.436;2022-10-04T07:43:30;13.20;99.90
29571;DHT22;16814;52.118;11.436;2022-10-04T07:49:20;13.20;99.90
29571;DHT22;16814;52.118;11.436;2022-10-04T07:58:13;13.40;99.90
29571;DHT22;16814;52.118;11.436;2022-10-04T08:01:31;13.40;99.90
29571;DHT22;16814;52.118;11.436;2022-10-04T08:06:57;13.50;99.90
29571;DHT22;16814;52.118;11.436;2022-10-04T08:15:33;13.80;99.90
29571;DHT22;16814;52.118;11.436;2022-10-04T08:18:20;13.90;99.90
29571;DHT22;16814;52.118;11.436;2022-10-04T08:20:57;14.10;99.90
29571;DHT22;16814;52.118;11.436;2022-10-04T08:26:50;14.30;99.90
29571;DHT22;16814;52.118;11.436;2022-10-04T08:33:25;14.60;99.90
29571;DHT22;16814;52.118;11.436;2022-10-04T08:35:47;14.70;99.90
29571;DHT22;16814;52.118;11.436;2022-10-04T08:38:51;14.90;99.90
29571;DHT22;16814;52.118;11.436;2022-10-04T08:41:59;15.30;99.90
29571;DHT22;16814;52.118;11.436;2022-10-04T08:45:09;15.70;99.90
29571;DHT22;16814;52.118;11.436;2022-10-04T08:54:27;16.40;99.90
29571;DHT22;16814;52.118;11.436;2022-10-04T09:03:43;17.20;99.90
29571;DHT22;16814;52.118;11.436;2022-10-04T09:18:07;18.70;99.90
29571;DHT22;16814;52.118;11.436;2022-10-04T09:21:09;18.80;99.90
29571;DHT22;16814;52.118;11.436;2022-10-04T09:30:16;17.90;99.90
29571;DHT22;16814;52.118;11.436;2022-10-04T09:44:59;17.80;99.90
29571;DHT22;16814;52.118;11.436;2022-10-04T09:48:06;18.40;99.90
29571;DHT22;16814;52.118;11.436;2022-10-04T09:51:05;19.10;99.90
29571;DHT22;16814;52.118;11.436;2022-10-04T09:59:50;19.90;99.90
29571;DHT22;16814;52.118;11.436;2022-10-04T10:09:01;19.80;99.90
29571;DHT22;16814;52.118;11.436;2022-10-04T10:11:48;20.00;99.90
29571;DHT22;16814;52.118;11.436;2022-10-04T10:17:55;20.90;99.90
29571;DHT22;16814;52.118;11.436;2022-10-04T10:24:08;20.70;99.90
29571;DHT22;16814;52.118;11.436;2022-10-04T10:29:40;20.40;99.90
29571;DHT22;16814;52.118;11.436;2022-10-04T10:41:38;20.60;99.90
29571;DHT22;16814;52.118;11.436;2022-10-04T10:47:41;20.50;99.90
29571;DHT22;16814;52.118;11.436;2022-10-04T10:53:52;20.30;99.90
29571;DHT22;16814;52.118;11.436;2022-10-04T10:56:58;20.40;99.90
29571;DHT22;16814;52.118;11.436;2022-10-04T11:14:09;20.10;99.90
29571;DHT22;16814;52.118;11.436;2022-10-04T11:25:47;18.40;99.90
29571;DHT22;16814;52.118;11.436;2022-10-04T11:34:46;18.70;99.90
29571;DHT22;16814;52.118;11.436;2022-10-04T11:37:48;18.50;99.90
29571;DHT22;16814;52.118;11.436;2022-10-04T11:46:31;18.80;99.90
29571;DHT22;16814;52.118;11.436;2022-10-04T11:58:39;18.10;99.90
29571;DHT22;16814;52.118;11.436;2022-10-04T12:10:27;17.70;99.90
29571;DHT22;16814;52.118;11.436;2022-10-04T12:19:36;17.60;99.90
29571;DHT22;16814;52.118;11.436;2022-10-04T12:22:37;17.60;99.90
29571;DHT22;16814;52.118;11.436;2022-10-04T12:25:25;17.60;99.90
29571;DHT22;16814;52.118;11.436;2022-10-04T12:31:19;17.90;99.90
29571;DHT22;16814;52.118;11.436;2022-10-04T12:36:58;17.90;99.90
29571;DHT22;16814;52.118;11.436;2022-10-04T12:51:20;17.90;99.90
29571;DHT22;16814;52.118;11.436;2022-10-04T12:54:22;18.00;99.90
29571;DHT22;16814;52.118;11.436;2022-10-04T13:00:23;17.90;99.90
29571;DHT22;16814;52.118;11.436;2022-10-04T13:03:32;17.70;99.90
29571;DHT22;16814;52.118;11.436;2022-10-04T13:06:38;17.60;99.90
29571;DHT22;16814;52.118;11.436;2022-10-04T13:12:55;17.40;99.90
29571;DHT22;16814;52.118;11.436;2022-10-04T13:15:34;17.60;99.90
29571;DHT22;16814;52.118;11.436;2022-10-04T13:21:05;17.80;99.90
29571;DHT22;16814;52.118;11.436;2022-10-04T13:24:09;17.70;99.90
29571;DHT22;16814;52.118;11.436;2022-10-04T13:27:04;17.70;99.90
29571;DHT22;16814;52.118;11.436;2022-10-04T13:33:01;17.70;99.90
29571;DHT22;16814;52.118;11.436;2022-10-04T13:44:00;17.60;99.90
29571;DHT22;16814;52.118;11.436;2022-10-04T13:52:25;17.60;99.90
29571;DHT22;16814;52.118;11.436;2022-10-04T13:55:27;17.70;99.90
29571;DHT22;16814;52.118;11.436;2022-10-04T13:58:44;17.70;99.90
29571;DHT22;16814;52.118;11.436;2022-10-04T14:10:50;17.70;99.90
29571;DHT22;16814;52.118;11.436;2022-10-04T14:34:44;17.90;99.90
29571;DHT22;16814;52.118;11.436;2022-10-04T14:49:09;18.10;99.90
29571;DHT22;16814;52.118;11.436;2022-10-04T14:52:02;18.10;99.90
29571;DHT22;16814;52.118;11.436;2022-10-04T15:00:21;18.40;99.90
29571;DHT22;16814;52.118;11.436;2022-10-04T15:06:14;18.10;99.90
29571;DHT22;16814;52.118;11.436;2022-10-04T15:08:59;17.90;99.90
29571;DHT22;16814;52.118;11.436;2022-10-04T15:15:20;17.80;99.90
29571;DHT22;16814;52.118;11.436;2022-10-04T15:17:59;17.90;99.90
29571;DHT22;16814;52.118;11.436;2022-10-04T15:23:39;17.90;99.90
29571;DHT22;16814;52.118;11.436;2022-10-04T15:29:15;17.90;99.90
29571;DHT22;16814;52.118;11.436;2022-10-04T15:38:00;17.70;99.90
29571;DHT22;16814;52.118;11.436;2022-10-04T15:46:28;17.60;99.90
29571;DHT22;16814;52.118;11.436;2022-10-04T15:49:26;17.40;99.90
29571;DHT22;16814;52.118;11.436;2022-10-04T15:52:15;17.40;99.90
29571;DHT22;16814;52.118;11.436;2022-10-04T16:06:48;17.10;99.90
29571;DHT22;16814;52.118;11.436;2022-10-04T16:09:42;16.90;99.90
29571;DHT22;16814;52.118;11.436;2022-10-04T16:12:28;16.70;99.90
29571;DHT22;16814;52.118;11.436;2022-10-04T16:15:20;16.50;99.90
29571;DHT22;16814;52.118;11.436;2022-10-04T16:20:53;16.60;99.90
29571;DHT22;16814;52.118;11.436;2022-10-04T16:23:36;16.50;99.90
29571;DHT22;16814;52.118;11.436;2022-10-04T16:26:05;16.50;99.90
29571;DHT22;16814;52.118;11.436;2022-10-04T16:31:41;16.30;99.90
29571;DHT22;16814;52.118;11.436;2022-10-04T16:37:11;16.20;99.90
29571;DHT22;16814;52.118;11.436;2022-10-04T16:42:52;16.00;99.90
29571;DHT22;16814;52.118;11.436;2022-10-04T16:54:27;16.00;99.90
29571;DHT22;16814;52.118;11.436;2022-10-04T17:02:50;16.00;99.90
29571;DHT22;16814;52.118;11.436;2022-10-04T17:05:44;16.00;99.90
29571;DHT22;16814;52.118;11.436;2022-10-04T17:17:50;15.70;99.90
29571;DHT22;16814;52.118;11.436;2022-10-04T17:23:34;15.50;99.90
29571;DHT22;16814;52.118;11.436;2022-10-04T17:26:39;15.40;99.90
29571;DHT22;16814;52.118;11.436;2022-10-04T17:35:55;15.10;99.90
29571;DHT22;16814;52.118;11.436;2022-10-04T17:38:46;15.00;99.90
29571;DHT22;16814;52.118;11.436;2022-10-04T17:44:40;14.90;99.90
29571;DHT22;16814;52.118;11.436;2022-10-04T17:50:02;14.90;99.90
29571;DHT22;16814;52.118;11.436;2022-10-04T17:52:58;14.90;99.90
29571;DHT22;16814;52.118;11.436;2022-10-04T17:55:54;14.80;99.90
29571;DHT22;16814;52.118;11.436;2022-10-04T18:01:35;14.70;99.90
29571;DHT22;16814;52.118;11.436;2022-10-04T18:04:23;14.60;99.90
29571;DHT22;16814;52.118;11.436;2022-10-04T18:07:38;14.60;99.90
29571;DHT22;16814;52.118;11.436;2022-10-04T18:10:09;14.50;99.90
29571;DHT22;16814;52.118;11.436;2022-10-04T18:13:04;14.50;99.90
29571;DHT22;16814;52.118;11.436;2022-10-04T18:15:41;14.50;99.90
29571;DHT22;16814;52.118;11.436;2022-10-04T18:18:21;14.40;99.90
29571;DHT22;16814;52.118;11.436;2022-10-04T18:23:51;14.30;99.90
29571;DHT22;16814;52.118;11.436;2022-10-04T18:26:19;14.30;99.90
29571;DHT22;16814;52.118;11.436;2022-10-04T18:28:47;14.40;99.90
29571;DHT22;16814;52.118;11.436;2022-10-04T18:31:28;14.40;99.90
29571;DHT22;16814;52.118;11.436;2022-10-04T18:34:02;14.40;99.90
29571;DHT22;16814;52.118;11.436;2022-10-04T18:39:43;14.50;99.90
29571;DHT22;16814;52.118;11.436;2022-10-04T18:42:28;14.40;99.90
29571;DHT22;16814;52.118;11.436;2022-10-04T18:45:24;14.40;99.90
29571;DHT22;16814;52.118;11.436;2022-10-04T18:47:52;14.50;99.90
29571;DHT22;16814;52.118;11.436;2022-10-04T18:56:00;14.40;99.90
29571;DHT22;16814;52.118;11.436;2022-10-04T19:05:00;14.20;99.90
29571;DHT22;16814;52.118;11.436;2022-10-04T19:10:50;14.30;99.90
29571;DHT22;16814;52.118;11.436;2022-10-04T19:28:05;14.10;99.90
29571;DHT22;16814;52.118;11.436;2022-10-04T19:39:56;13.80;99.90
29571;DHT22;16814;52.118;11.436;2022-10-04T19:42:40;13.70;99.90
29571;DHT22;16814;52.118;11.436;2022-10-04T19:48:04;13.50;99.90
29571;DHT22;16814;52.118;11.436;2022-10-04T19:50:55;13.50;99.90
29571;DHT22;16814;52.118;11.436;2022-10-04T19:53:43;13.40;99.90
29571;DHT22;16814;52.118;11.436;2022-10-04T19:56:23;13.40;99.90
29571;DHT22;16814;52.118;11.436;2022-10-04T19:59:06;13.40;99.90
29571;DHT22;16814;52.118;11.436;2022-10-04T20:01:34;13.40;99.90
29571;DHT22;16814;52.118;11.436;2022-10-04T20:04:06;13.40;99.90
29571;DHT22;16814;52.118;11.436;2022-10-04T20:07:03;13.40;99.90
29571;DHT22;16814;52.118;11.436;2022-10-04T20:09:52;13.40;99.90
29571;DHT22;16814;52.118;11.436;2022-10-04T20:12:38;13.40;99.90
29571;DHT22;16814;52.118;11.436;2022-10-04T20:17:54;13.30;99.90
29571;DHT22;16814;52.118;11.436;2022-10-04T20:23:06;13.20;99.90
29571;DHT22;16814;52.118;11.436;2022-10-04T20:31:09;13.10;99.90
29571;DHT22;16814;52.118;11.436;2022-10-04T20:36:47;13.00;99.90
29571;DHT22;16814;52.118;11.436;2022-10-04T20:39:02;13.00;99.90
29571;DHT22;16814;52.118;11.436;2022-10-04T20:44:39;13.20;99.90
29571;DHT22;16814;52.118;11.436;2022-10-04T20:50:16;13.00;99.90
29571;DHT22;16814;52.118;11.436;2022-10-04T20:52:49;13.20;99.90
29571;DHT22;16814;52.118;11.436;2022-10-04T20:55:34;13.20;99.90
29571;DHT22;16814;52.118;11.436;2022-10-04T20:58:02;13.20;99.90
29571;DHT22;16814;52.118;11.436;2022-10-04T21:00:32;13.20;99.90
29571;DHT22;16814;52.118;11.436;2022-10-04T21:03:12;13.10;99.90
29571;DHT22;16814;52.118;11.436;2022-10-04T21:05:41;13.20;99.90
29571;DHT22;16814;52.118;11.436;2022-10-04T21:08:19;13.00;99.90
29571;DHT22;16814;52.118;11.436;2022-10-04T21:13:58;12.90;99.90
29571;DHT22;16814;52.118;11.436;2022-10-04T21:16:46;12.80;99.90
29571;DHT22;16814;52.118;11.436;2022-10-04T21:27:39;12.70;99.90
29571;DHT22;16814;52.118;11.436;2022-10-04T21:30:18;12.60;99.90
29571;DHT22;16814;52.118;11.436;2022-10-04T21:32:44;12.50;99.90
29571;DHT22;16814;52.118;11.436;2022-10-04T21:35:12;12.20;99.90
29571;DHT22;16814;52.118;11.436;2022-10-04T21:37:39;12.10;99.90
29571;DHT22;16814;52.118;11.436;2022-10-04T21:40:07;12.10;99.90
29571;DHT22;16814;52.118;11.436;2022-10-04T21:42:32;12.10;99.90
29571;DHT22;16814;52.118;11.436;2022-10-04T21:45:09;12.20;99.90
29571;DHT22;16814;52.118;11.436;2022-10-04T21:47:35;12.20;99.90
29571;DHT22;16814;52.118;11.436;2022-10-04T21:50:04;12.20;99.90
29571;DHT22;16814;52.118;11.436;2022-10-04T21:52:31;12.30;99.90
29571;DHT22;16814;52.118;11.436;2022-10-04T21:54:58;12.40;99.90
29571;DHT22;16814;52.118;11.436;2022-10-04T21:57:25;12.30;99.90
29571;DHT22;16814;52.118;11.436;2022-10-04T21:59:50;12.30;99.90
29571;DHT22;16814;52.118;11.436;2022-10-04T22:02:19;12.30;99.90
29571;DHT22;16814;52.118;11.436;2022-10-04T22:04:46;12.40;99.90
29571;DHT22;16814;52.118;11.436;2022-10-04T22:07:12;12.40;99.90
29571;DHT22;16814;52.118;11.436;2022-10-04T22:09:39;12.30;99.90
29571;DHT22;16814;52.118;11.436;2022-10-04T22:12:07;12.30;99.90
29571;DHT22;16814;52.118;11.436;2022-10-04T22:14:34;12.40;99.90
29571;DHT22;16814;52.118;11.436;2022-10-04T22:16:59;12.40;99.90
29571;DHT22;16814;52.118;11.436;2022-10-04T22:19:27;12.40;99.90
29571;DHT22;16814;52.118;11.436;2022-10-04T22:21:54;12.40;99.90
29571;DHT22;16814;52.118;11.436;2022-10-04T22:24:21;12.40;99.90
29571;DHT22;16814;52.118;11.436;2022-10-04T22:26:47;12.40;99.90
29571;DHT22;16814;52.118;11.436;2022-10-04T22:29:16;12.30;99.90
29571;DHT22;16814;52.118;11.436;2022-10-04T22:31:50;12.20;99.90
29571;DHT22;16814;52.118;11.436;2022-10-04T22:34:21;12.10;99.90
29571;DHT22;16814;52.118;11.436;2022-10-04T22:36:48;12.20;99.90
29571;DHT22;16814;52.118;11.436;2022-10-04T22:39:19;12.00;99.90
29571;DHT22;16814;52.118;11.436;2022-10-04T22:41:52;12.10;99.90
29571;DHT22;16814;52.118;11.436;2022-10-04T22:44:26;12.20;99.90
29571;DHT22;16814;52.118;11.436;2022-10-04T22:46:58;12.30;99.90
29571;DHT22;16814;52.118;11.436;2022-10-04T22:49:31;12.30;99.90
29571;DHT22;16814;52.118;11.436;2022-10-04T22:52:00;12.30;99.90
29571;DHT22;16814;52.118;11.436;2022-10-04T22:54:31;12.30;99.90
29571;DHT22;16814;52.118;11.436;2022-10-04T22:56:57;12.20;99.90
29571;DHT22;16814;52.118;11.436;2022-10-04T22:59:38;12.00;99.90
29571;DHT22;16814;52.118;11.436;2022-10-04T23:02:16;12.00;99.90
29571;DHT22;16814;52.118;11.436;2022-10-04T23:04:52;12.10;99.90
29571;DHT22;16814;52.118;11.436;2022-10-04T23:07:20;12.10;99.90
29571;DHT22;16814;52.118;11.436;2022-10-04T23:09:46;12.20;99.90
29571;DHT22;16814;52.118;11.436;2022-10-04T23:12:14;12.10;99.90
29571;DHT22;16814;52.118;11.436;2022-10-04T23:14:40;12.20;99.90
29571;DHT22;16814;52.118;11.436;2022-10-04T23:20:19;12.10;99.90
29571;DHT22;16814;52.118;11.436;2022-10-04T23:22:49;12.10;99.90
29571;DHT22;16814;52.118;11.436;2022-10-04T23:25:28;12.10;99.90
29571;DHT22;16814;52.118;11.436;2022-10-04T23:28:00;12.10;99.90
29571;DHT22;16814;52.118;11.436;2022-10-04T23:30:28;11.90;99.90
29571;DHT22;16814;52.118;11.436;2022-10-04T23:32:58;11.80;99.90
29571;DHT22;16814;52.118;11.436;2022-10-04T23:35:31;11.90;99.90
29571;DHT22;16814;52.118;11.436;2022-10-04T23:37:57;11.90;99.90
29571;DHT22;16814;52.118;11.436;2022-10-04T23:40:25;11.90;99.90
29571;DHT22;16814;52.118;11.436;2022-10-04T23:42:53;11.90;99.90
29571;DHT22;16814;52.118;11.436;2022-10-04T23:45:23;12.10;99.90
29571;DHT22;16814;52.118;11.436;2022-10-04T23:47:55;12.20;99.90
29571;DHT22;16814;52.118;11.436;2022-10-04T23:50:35;12.10;99.90
29571;DHT22;16814;52.118;11.436;2022-10-04T23:53:11;12.10;99.90
29571;DHT22;16814;52.118;11.436;2022-10-04T23:55:44;12.00;99.90
29571;DHT22;16814;52.118;11.436;2022-10-04T23:58:19;11.90;99.90
